sensor_id;sensor_type;location;lat;lon;timestamp;P1;durP1;ratioP1;P2;durP2;ratioP2
50056;SDS011;36875;49.468;11.200;2023-02-15T00:00:53;2.42;;;1.45;;
50056;SDS011;36875;49.468;11.200;2023-02-15T00:03:22;2.50;;;1.50;;
50056;SDS011;36875;49.468;11.200;2023-02-15T00:05:47;1.95;;;1.40;;
50056;SDS011;36875;49.468;11.200;2023-02-15T00:08:14;2.38;;;1.30;;
50056;SDS011;36875;49.468;11.200;2023-02-15T00:10:39;1.77;;;1.30;;
50056;SDS011;36875;49.468;11.200;2023-02-15T00:13:05;1.73;;;1.20;;
50056;SDS011;36875;49.468;11.200;2023-02-15T00:15:30;1.55;;;1.17;;
50056;SDS011;36875;49.468;11.200;2023-02-15T00:17:56;2.50;;;1.23;;
50056;SDS011;36875;49.468;11.200;2023-02-15T00:20:22;2.28;;;1.23;;
50056;SDS011;36875;49.468;11.200;2023-02-15T00:22:47;2.75;;;1.20;;
50056;SDS011;36875;49.468;11.200;2023-02-15T00:25:14;2.05;;;1.45;;
50056;SDS011;36875;49.468;11.200;2023-02-15T00:27:40;2.78;;;1.30;;
50056;SDS011;36875;49.468;11.200;2023-02-15T00:30:05;1.67;;;1.20;;
50056;SDS011;36875;49.468;11.200;2023-02-15T00:32:32;1.52;;;1.10;;
50056;SDS011;36875;49.468;11.200;2023-02-15T00:34:57;2.75;;;1.20;;
50056;SDS011;36875;49.468;11.200;2023-02-15T00:37:22;2.35;;;1.10;;
50056;SDS011;36875;49.468;11.200;2023-02-15T00:39:48;1.42;;;1.20;;
50056;SDS011;36875;49.468;11.200;2023-02-15T00:42:15;2.08;;;1.20;;
50056;SDS011;36875;49.468;11.200;2023-02-15T00:44:40;2.03;;;1.42;;
50056;SDS011;36875;49.468;11.200;2023-02-15T00:47:06;1.20;;;1.00;;
50056;SDS011;36875;49.468;11.200;2023-02-15T00:49:31;2.03;;;1.00;;
50056;SDS011;36875;49.468;11.200;2023-02-15T00:51:56;2.33;;;1.20;;
50056;SDS011;36875;49.468;11.200;2023-02-15T00:54:22;1.35;;;1.20;;
50056;SDS011;36875;49.468;11.200;2023-02-15T00:56:47;1.58;;;1.08;;
50056;SDS011;36875;49.468;11.200;2023-02-15T00:59:14;1.48;;;1.10;;
50056;SDS011;36875;49.468;11.200;2023-02-15T01:01:40;1.85;;;1.05;;
50056;SDS011;36875;49.468;11.200;2023-02-15T01:04:05;1.33;;;1.10;;
50056;SDS011;36875;49.468;11.200;2023-02-15T01:06:31;1.10;;;0.90;;
50056;SDS011;36875;49.468;11.200;2023-02-15T01:08:56;0.93;;;0.93;;
50056;SDS011;36875;49.468;11.200;2023-02-15T01:11:22;0.88;;;0.80;;
50056;SDS011;36875;49.468;11.200;2023-02-15T01:13:48;0.98;;;0.90;;
50056;SDS011;36875;49.468;11.200;2023-02-15T01:16:16;1.17;;;0.90;;
50056;SDS011;36875;49.468;11.200;2023-02-15T01:18:41;1.00;;;0.90;;
50056;SDS011;36875;49.468;11.200;2023-02-15T01:21:11;1.17;;;0.90;;
50056;SDS011;36875;49.468;11.200;2023-02-15T01:23:38;1.40;;;1.00;;
50056;SDS011;36875;49.468;11.200;2023-02-15T01:26:04;1.17;;;0.90;;
50056;SDS011;36875;49.468;11.200;2023-02-15T01:28:30;1.25;;;1.08;;
50056;SDS011;36875;49.468;11.200;2023-02-15T01:30:56;1.88;;;1.00;;
50056;SDS011;36875;49.468;11.200;2023-02-15T01:33:23;1.35;;;0.80;;
50056;SDS011;36875;49.468;11.200;2023-02-15T01:35:48;1.30;;;0.93;;
50056;SDS011;36875;49.468;11.200;2023-02-15T01:38:14;0.98;;;0.88;;
50056;SDS011;36875;49.468;11.200;2023-02-15T01:40:39;1.10;;;0.90;;
50056;SDS011;36875;49.468;11.200;2023-02-15T01:43:07;1.52;;;0.75;;
50056;SDS011;36875;49.468;11.200;2023-02-15T01:45:35;1.08;;;0.98;;
50056;SDS011;36875;49.468;11.200;2023-02-15T01:48:02;0.88;;;0.80;;
50056;SDS011;36875;49.468;11.200;2023-02-15T01:50:32;0.80;;;0.73;;
50056;SDS011;36875;49.468;11.200;2023-02-15T01:53:01;0.80;;;0.73;;
50056;SDS011;36875;49.468;11.200;2023-02-15T01:55:32;0.98;;;0.75;;
50056;SDS011;36875;49.468;11.200;2023-02-15T01:58:01;0.90;;;0.90;;
50056;SDS011;36875;49.468;11.200;2023-02-15T02:00:27;1.38;;;1.00;;
50056;SDS011;36875;49.468;11.200;2023-02-15T02:02:53;0.95;;;0.80;;
50056;SDS011;36875;49.468;11.200;2023-02-15T02:05:20;1.20;;;0.85;;
50056;SDS011;36875;49.468;11.200;2023-02-15T02:07:48;0.80;;;0.80;;
50056;SDS011;36875;49.468;11.200;2023-02-15T02:10:17;0.80;;;0.80;;
50056;SDS011;36875;49.468;11.200;2023-02-15T02:12:45;0.75;;;0.65;;
50056;SDS011;36875;49.468;11.200;2023-02-15T02:15:13;0.95;;;0.70;;
50056;SDS011;36875;49.468;11.200;2023-02-15T02:17:43;0.90;;;0.80;;
50056;SDS011;36875;49.468;11.200;2023-02-15T02:20:38;2.05;;;0.80;;
50056;SDS011;36875;49.468;11.200;2023-02-15T02:23:23;1.30;;;0.77;;
50056;SDS011;36875;49.468;11.200;2023-02-15T02:25:58;0.90;;;0.75;;
50056;SDS011;36875;49.468;11.200;2023-02-15T02:29:08;1.30;;;0.88;;
50056;SDS011;36875;49.468;11.200;2023-02-15T02:31:59;0.90;;;0.85;;
50056;SDS011;36875;49.468;11.200;2023-02-15T02:34:50;1.00;;;0.77;;
50056;SDS011;36875;49.468;11.200;2023-02-15T02:37:20;0.82;;;0.50;;
50056;SDS011;36875;49.468;11.200;2023-02-15T02:39:54;1.23;;;0.82;;
50056;SDS011;36875;49.468;11.200;2023-02-15T02:42:29;0.77;;;0.68;;
50056;SDS011;36875;49.468;11.200;2023-02-15T02:45:02;0.73;;;0.60;;
50056;SDS011;36875;49.468;11.200;2023-02-15T02:47:30;0.70;;;0.68;;
50056;SDS011;36875;49.468;11.200;2023-02-15T02:50:04;0.80;;;0.70;;
50056;SDS011;36875;49.468;11.200;2023-02-15T02:52:35;1.30;;;0.90;;
50056;SDS011;36875;49.468;11.200;2023-02-15T02:55:03;0.80;;;0.63;;
50056;SDS011;36875;49.468;11.200;2023-02-15T02:57:31;1.98;;;0.57;;
50056;SDS011;36875;49.468;11.200;2023-02-15T02:59:57;0.70;;;0.70;;
50056;SDS011;36875;49.468;11.200;2023-02-15T03:02:28;0.60;;;0.60;;
50056;SDS011;36875;49.468;11.200;2023-02-15T03:04:57;1.08;;;0.50;;
50056;SDS011;36875;49.468;11.200;2023-02-15T03:07:30;1.10;;;0.77;;
50056;SDS011;36875;49.468;11.200;2023-02-15T03:09:57;0.75;;;0.60;;
50056;SDS011;36875;49.468;11.200;2023-02-15T03:12:24;1.02;;;0.60;;
50056;SDS011;36875;49.468;11.200;2023-02-15T03:14:54;0.60;;;0.52;;
50056;SDS011;36875;49.468;11.200;2023-02-15T03:17:25;0.68;;;0.68;;
50056;SDS011;36875;49.468;11.200;2023-02-15T03:19:55;1.20;;;0.80;;
50056;SDS011;36875;49.468;11.200;2023-02-15T03:22:26;0.77;;;0.70;;
50056;SDS011;36875;49.468;11.200;2023-02-15T03:24:59;0.50;;;0.50;;
50056;SDS011;36875;49.468;11.200;2023-02-15T03:27:31;0.93;;;0.63;;
50056;SDS011;36875;49.468;11.200;2023-02-15T03:30:01;0.70;;;0.70;;
50056;SDS011;36875;49.468;11.200;2023-02-15T03:32:28;0.65;;;0.65;;
50056;SDS011;36875;49.468;11.200;2023-02-15T03:34:57;0.68;;;0.68;;
50056;SDS011;36875;49.468;11.200;2023-02-15T03:37:24;0.75;;;0.60;;
50056;SDS011;36875;49.468;11.200;2023-02-15T03:39:56;1.08;;;0.82;;
50056;SDS011;36875;49.468;11.200;2023-02-15T03:42:45;0.60;;;0.55;;
50056;SDS011;36875;49.468;11.200;2023-02-15T03:45:20;0.50;;;0.50;;
50056;SDS011;36875;49.468;11.200;2023-02-15T03:47:50;0.63;;;0.60;;
50056;SDS011;36875;49.468;11.200;2023-02-15T03:50:20;1.23;;;0.77;;
50056;SDS011;36875;49.468;11.200;2023-02-15T03:53:09;0.65;;;0.65;;
50056;SDS011;36875;49.468;11.200;2023-02-15T03:55:39;0.90;;;0.70;;
50056;SDS011;36875;49.468;11.200;2023-02-15T03:58:05;0.60;;;0.60;;
50056;SDS011;36875;49.468;11.200;2023-02-15T04:00:57;0.50;;;0.50;;
50056;SDS011;36875;49.468;11.200;2023-02-15T04:03:43;0.60;;;0.60;;
50056;SDS011;36875;49.468;11.200;2023-02-15T04:06:14;0.60;;;0.60;;
50056;SDS011;36875;49.468;11.200;2023-02-15T04:08:39;0.88;;;0.60;;
50056;SDS011;36875;49.468;11.200;2023-02-15T04:11:25;1.38;;;0.93;;
50056;SDS011;36875;49.468;11.200;2023-02-15T04:13:50;0.68;;;0.68;;
50056;SDS011;36875;49.468;11.200;2023-02-15T04:16:21;0.70;;;0.63;;
50056;SDS011;36875;49.468;11.200;2023-02-15T04:18:46;0.70;;;0.70;;
50056;SDS011;36875;49.468;11.200;2023-02-15T04:21:30;0.50;;;0.50;;
50056;SDS011;36875;49.468;11.200;2023-02-15T04:24:15;2.70;;;0.73;;
50056;SDS011;36875;49.468;11.200;2023-02-15T04:27:00;0.60;;;0.60;;
50056;SDS011;36875;49.468;11.200;2023-02-15T04:29:28;0.50;;;0.50;;
50056;SDS011;36875;49.468;11.200;2023-02-15T04:31:54;0.40;;;0.40;;
50056;SDS011;36875;49.468;11.200;2023-02-15T04:34:21;0.50;;;0.50;;
50056;SDS011;36875;49.468;11.200;2023-02-15T04:36:48;0.93;;;0.63;;
50056;SDS011;36875;49.468;11.200;2023-02-15T04:39:24;0.50;;;0.50;;
50056;SDS011;36875;49.468;11.200;2023-02-15T04:41:50;0.40;;;0.40;;
50056;SDS011;36875;49.468;11.200;2023-02-15T04:44:18;0.65;;;0.50;;
50056;SDS011;36875;49.468;11.200;2023-02-15T04:46:44;0.88;;;0.73;;
50056;SDS011;36875;49.468;11.200;2023-02-15T04:49:10;0.65;;;0.60;;
50056;SDS011;36875;49.468;11.200;2023-02-15T04:51:35;0.50;;;0.50;;
50056;SDS011;36875;49.468;11.200;2023-02-15T04:54:01;0.50;;;0.50;;
50056;SDS011;36875;49.468;11.200;2023-02-15T04:56:26;0.98;;;0.70;;
50056;SDS011;36875;49.468;11.200;2023-02-15T04:58:52;0.52;;;0.50;;
50056;SDS011;36875;49.468;11.200;2023-02-15T05:01:19;1.05;;;0.55;;
50056;SDS011;36875;49.468;11.200;2023-02-15T05:03:44;0.57;;;0.57;;
50056;SDS011;36875;49.468;11.200;2023-02-15T05:06:09;1.15;;;0.63;;
50056;SDS011;36875;49.468;11.200;2023-02-15T05:08:38;0.70;;;0.50;;
50056;SDS011;36875;49.468;11.200;2023-02-15T05:11:03;0.70;;;0.70;;
50056;SDS011;36875;49.468;11.200;2023-02-15T05:13:29;0.75;;;0.57;;
50056;SDS011;36875;49.468;11.200;2023-02-15T05:15:54;0.60;;;0.57;;
50056;SDS011;36875;49.468;11.200;2023-02-15T05:18:21;0.40;;;0.40;;
50056;SDS011;36875;49.468;11.200;2023-02-15T05:20:47;0.75;;;0.60;;
50056;SDS011;36875;49.468;11.200;2023-02-15T05:23:13;0.93;;;0.60;;
50056;SDS011;36875;49.468;11.200;2023-02-15T05:25:38;0.60;;;0.50;;
50056;SDS011;36875;49.468;11.200;2023-02-15T05:28:23;1.15;;;0.70;;
50056;SDS011;36875;49.468;11.200;2023-02-15T05:30:51;0.60;;;0.60;;
50056;SDS011;36875;49.468;11.200;2023-02-15T05:33:28;0.70;;;0.70;;
50056;SDS011;36875;49.468;11.200;2023-02-15T05:35:53;0.68;;;0.60;;
50056;SDS011;36875;49.468;11.200;2023-02-15T05:38:19;0.63;;;0.60;;
50056;SDS011;36875;49.468;11.200;2023-02-15T05:40:44;0.68;;;0.68;;
50056;SDS011;36875;49.468;11.200;2023-02-15T05:43:10;0.82;;;0.65;;
50056;SDS011;36875;49.468;11.200;2023-02-15T05:45:35;0.80;;;0.80;;
50056;SDS011;36875;49.468;11.200;2023-02-15T05:48:01;0.88;;;0.57;;
50056;SDS011;36875;49.468;11.200;2023-02-15T05:50:28;0.63;;;0.63;;
50056;SDS011;36875;49.468;11.200;2023-02-15T05:52:53;0.90;;;0.70;;
50056;SDS011;36875;49.468;11.200;2023-02-15T05:55:19;0.60;;;0.60;;
50056;SDS011;36875;49.468;11.200;2023-02-15T05:57:45;0.82;;;0.73;;
50056;SDS011;36875;49.468;11.200;2023-02-15T06:00:11;0.70;;;0.70;;
50056;SDS011;36875;49.468;11.200;2023-02-15T06:02:38;0.80;;;0.80;;
50056;SDS011;36875;49.468;11.200;2023-02-15T06:05:05;0.60;;;0.60;;
50056;SDS011;36875;49.468;11.200;2023-02-15T06:07:32;0.98;;;0.73;;
50056;SDS011;36875;49.468;11.200;2023-02-15T06:09:58;1.35;;;0.80;;
50056;SDS011;36875;49.468;11.200;2023-02-15T06:12:23;1.92;;;1.25;;
50056;SDS011;36875;49.468;11.200;2023-02-15T06:14:49;2.45;;;1.00;;
50056;SDS011;36875;49.468;11.200;2023-02-15T06:17:14;1.20;;;1.02;;
50056;SDS011;36875;49.468;11.200;2023-02-15T06:19:41;1.40;;;1.02;;
50056;SDS011;36875;49.468;11.200;2023-02-15T06:22:07;1.80;;;1.08;;
50056;SDS011;36875;49.468;11.200;2023-02-15T06:24:33;4.60;;;1.27;;
50056;SDS011;36875;49.468;11.200;2023-02-15T06:26:59;1.58;;;1.05;;
50056;SDS011;36875;49.468;11.200;2023-02-15T06:29:24;3.13;;;1.33;;
50056;SDS011;36875;49.468;11.200;2023-02-15T06:31:50;3.28;;;1.50;;
50056;SDS011;36875;49.468;11.200;2023-02-15T06:34:16;3.13;;;1.20;;
50056;SDS011;36875;49.468;11.200;2023-02-15T06:36:41;4.82;;;1.33;;
50056;SDS011;36875;49.468;11.200;2023-02-15T06:39:06;3.08;;;1.30;;
50056;SDS011;36875;49.468;11.200;2023-02-15T06:41:33;3.40;;;1.20;;
50056;SDS011;36875;49.468;11.200;2023-02-15T06:43:59;3.58;;;1.40;;
50056;SDS011;36875;49.468;11.200;2023-02-15T06:46:25;3.58;;;1.38;;
50056;SDS011;36875;49.468;11.200;2023-02-15T06:48:50;3.38;;;1.90;;
50056;SDS011;36875;49.468;11.200;2023-02-15T06:51:16;4.90;;;1.80;;
50056;SDS011;36875;49.468;11.200;2023-02-15T06:53:41;4.35;;;1.80;;
50056;SDS011;36875;49.468;11.200;2023-02-15T06:56:08;7.80;;;1.85;;
50056;SDS011;36875;49.468;11.200;2023-02-15T06:58:36;5.65;;;2.17;;
50056;SDS011;36875;49.468;11.200;2023-02-15T07:01:03;7.85;;;1.65;;
50056;SDS011;36875;49.468;11.200;2023-02-15T07:03:29;7.68;;;1.75;;
50056;SDS011;36875;49.468;11.200;2023-02-15T07:05:54;6.45;;;1.85;;
50056;SDS011;36875;49.468;11.200;2023-02-15T07:08:21;6.90;;;1.95;;
50056;SDS011;36875;49.468;11.200;2023-02-15T07:10:46;8.32;;;2.05;;
50056;SDS011;36875;49.468;11.200;2023-02-15T07:13:13;18.17;;;2.65;;
50056;SDS011;36875;49.468;11.200;2023-02-15T07:15:42;11.52;;;2.08;;
50056;SDS011;36875;49.468;11.200;2023-02-15T07:18:08;8.98;;;2.00;;
50056;SDS011;36875;49.468;11.200;2023-02-15T07:20:35;8.25;;;2.92;;
50056;SDS011;36875;49.468;11.200;2023-02-15T07:23:02;8.50;;;2.75;;
50056;SDS011;36875;49.468;11.200;2023-02-15T07:25:28;9.13;;;3.17;;
50056;SDS011;36875;49.468;11.200;2023-02-15T07:27:55;7.03;;;2.70;;
50056;SDS011;36875;49.468;11.200;2023-02-15T07:30:21;9.45;;;2.40;;
50056;SDS011;36875;49.468;11.200;2023-02-15T07:32:48;5.85;;;2.47;;
50056;SDS011;36875;49.468;11.200;2023-02-15T07:35:32;7.00;;;2.55;;
50056;SDS011;36875;49.468;11.200;2023-02-15T07:37:58;8.45;;;2.33;;
50056;SDS011;36875;49.468;11.200;2023-02-15T07:40:24;7.93;;;2.47;;
50056;SDS011;36875;49.468;11.200;2023-02-15T07:42:50;6.95;;;2.30;;
50056;SDS011;36875;49.468;11.200;2023-02-15T07:45:18;7.25;;;2.25;;
50056;SDS011;36875;49.468;11.200;2023-02-15T07:47:44;5.93;;;2.22;;
50056;SDS011;36875;49.468;11.200;2023-02-15T07:50:10;6.93;;;2.53;;
50056;SDS011;36875;49.468;11.200;2023-02-15T07:52:36;7.10;;;2.20;;
50056;SDS011;36875;49.468;11.200;2023-02-15T07:55:01;5.07;;;2.55;;
50056;SDS011;36875;49.468;11.200;2023-02-15T07:57:28;7.32;;;3.42;;
50056;SDS011;36875;49.468;11.200;2023-02-15T07:59:53;6.22;;;2.60;;
50056;SDS011;36875;49.468;11.200;2023-02-15T08:02:19;6.60;;;2.63;;
50056;SDS011;36875;49.468;11.200;2023-02-15T08:04:44;5.80;;;2.40;;
50056;SDS011;36875;49.468;11.200;2023-02-15T08:07:11;4.03;;;2.38;;
50056;SDS011;36875;49.468;11.200;2023-02-15T08:09:36;7.60;;;2.78;;
50056;SDS011;36875;49.468;11.200;2023-02-15T08:12:02;6.47;;;2.40;;
50056;SDS011;36875;49.468;11.200;2023-02-15T08:14:29;6.43;;;2.50;;
50056;SDS011;36875;49.468;11.200;2023-02-15T08:16:55;4.50;;;2.45;;
50056;SDS011;36875;49.468;11.200;2023-02-15T08:19:25;6.15;;;2.35;;
50056;SDS011;36875;49.468;11.200;2023-02-15T08:21:55;6.25;;;2.10;;
50056;SDS011;36875;49.468;11.200;2023-02-15T08:24:24;4.43;;;2.10;;
50056;SDS011;36875;49.468;11.200;2023-02-15T08:26:50;4.90;;;2.20;;
50056;SDS011;36875;49.468;11.200;2023-02-15T08:29:17;3.00;;;1.92;;
50056;SDS011;36875;49.468;11.200;2023-02-15T08:31:44;5.03;;;2.25;;
50056;SDS011;36875;49.468;11.200;2023-02-15T08:34:11;4.47;;;2.08;;
50056;SDS011;36875;49.468;11.200;2023-02-15T08:36:39;5.65;;;2.50;;
50056;SDS011;36875;49.468;11.200;2023-02-15T08:39:05;7.25;;;2.55;;
50056;SDS011;36875;49.468;11.200;2023-02-15T08:41:32;4.50;;;2.55;;
50056;SDS011;36875;49.468;11.200;2023-02-15T08:44:00;5.30;;;2.20;;
50056;SDS011;36875;49.468;11.200;2023-02-15T08:46:27;3.53;;;1.92;;
50056;SDS011;36875;49.468;11.200;2023-02-15T08:48:55;4.25;;;2.05;;
50056;SDS011;36875;49.468;11.200;2023-02-15T08:51:21;3.28;;;1.77;;
50056;SDS011;36875;49.468;11.200;2023-02-15T08:53:50;4.28;;;1.92;;
50056;SDS011;36875;49.468;11.200;2023-02-15T08:56:17;3.17;;;1.73;;
50056;SDS011;36875;49.468;11.200;2023-02-15T08:58:45;4.88;;;1.90;;
50056;SDS011;36875;49.468;11.200;2023-02-15T09:01:12;10.05;;;6.32;;
50056;SDS011;36875;49.468;11.200;2023-02-15T09:03:38;6.03;;;4.30;;
50056;SDS011;36875;49.468;11.200;2023-02-15T09:06:05;6.78;;;5.15;;
50056;SDS011;36875;49.468;11.200;2023-02-15T09:08:31;6.13;;;4.50;;
50056;SDS011;36875;49.468;11.200;2023-02-15T09:11:04;5.00;;;4.50;;
50056;SDS011;36875;49.468;11.200;2023-02-15T09:13:30;6.57;;;4.57;;
50056;SDS011;36875;49.468;11.200;2023-02-15T09:15:59;6.07;;;4.53;;
50056;SDS011;36875;49.468;11.200;2023-02-15T09:18:25;6.20;;;3.88;;
50056;SDS011;36875;49.468;11.200;2023-02-15T09:20:51;4.75;;;3.65;;
50056;SDS011;36875;49.468;11.200;2023-02-15T09:23:20;5.85;;;3.33;;
50056;SDS011;36875;49.468;11.200;2023-02-15T09:25:45;3.88;;;2.88;;
50056;SDS011;36875;49.468;11.200;2023-02-15T09:28:11;4.03;;;2.92;;
50056;SDS011;36875;49.468;11.200;2023-02-15T09:30:37;4.35;;;2.80;;
50056;SDS011;36875;49.468;11.200;2023-02-15T09:33:04;4.88;;;2.97;;
50056;SDS011;36875;49.468;11.200;2023-02-15T09:35:29;6.47;;;2.90;;
50056;SDS011;36875;49.468;11.200;2023-02-15T09:37:55;4.65;;;2.67;;
50056;SDS011;36875;49.468;11.200;2023-02-15T09:40:20;7.32;;;2.70;;
50056;SDS011;36875;49.468;11.200;2023-02-15T09:42:50;4.70;;;2.58;;
50056;SDS011;36875;49.468;11.200;2023-02-15T09:45:46;3.25;;;2.10;;
50056;SDS011;36875;49.468;11.200;2023-02-15T09:48:26;6.07;;;2.28;;
50056;SDS011;36875;49.468;11.200;2023-02-15T09:51:06;6.70;;;3.17;;
50056;SDS011;36875;49.468;11.200;2023-02-15T09:53:58;4.55;;;2.10;;
50056;SDS011;36875;49.468;11.200;2023-02-15T09:56:37;3.42;;;2.20;;
50056;SDS011;36875;49.468;11.200;2023-02-15T09:59:09;3.67;;;1.98;;
50056;SDS011;36875;49.468;11.200;2023-02-15T10:01:43;4.32;;;2.40;;
50056;SDS011;36875;49.468;11.200;2023-02-15T10:04:19;2.90;;;1.85;;
50056;SDS011;36875;49.468;11.200;2023-02-15T10:06:59;4.82;;;1.70;;
50056;SDS011;36875;49.468;11.200;2023-02-15T10:09:39;3.58;;;2.03;;
50056;SDS011;36875;49.468;11.200;2023-02-15T10:12:19;3.97;;;1.98;;
50056;SDS011;36875;49.468;11.200;2023-02-15T10:15:02;2.33;;;1.80;;
50056;SDS011;36875;49.468;11.200;2023-02-15T10:17:42;4.63;;;1.85;;
50056;SDS011;36875;49.468;11.200;2023-02-15T10:20:23;7.70;;;2.17;;
50056;SDS011;36875;49.468;11.200;2023-02-15T10:23:00;3.45;;;2.00;;
50056;SDS011;36875;49.468;11.200;2023-02-15T10:25:40;4.60;;;1.75;;
50056;SDS011;36875;49.468;11.200;2023-02-15T10:28:13;2.63;;;1.42;;
50056;SDS011;36875;49.468;11.200;2023-02-15T10:30:43;3.22;;;1.90;;
50056;SDS011;36875;49.468;11.200;2023-02-15T10:35:46;2.78;;;1.60;;
50056;SDS011;36875;49.468;11.200;2023-02-15T10:38:23;6.40;;;1.90;;
50056;SDS011;36875;49.468;11.200;2023-02-15T10:41:00;6.60;;;2.90;;
50056;SDS011;36875;49.468;11.200;2023-02-15T10:43:41;6.10;;;1.63;;
50056;SDS011;36875;49.468;11.200;2023-02-15T10:46:21;4.68;;;1.70;;
50056;SDS011;36875;49.468;11.200;2023-02-15T10:49:01;4.68;;;2.20;;
50056;SDS011;36875;49.468;11.200;2023-02-15T10:51:49;6.90;;;2.03;;
50056;SDS011;36875;49.468;11.200;2023-02-15T10:54:28;6.18;;;1.92;;
50056;SDS011;36875;49.468;11.200;2023-02-15T10:57:03;7.22;;;2.08;;
50056;SDS011;36875;49.468;11.200;2023-02-15T10:59:42;5.28;;;1.98;;
50056;SDS011;36875;49.468;11.200;2023-02-15T11:02:20;6.82;;;2.13;;
50056;SDS011;36875;49.468;11.200;2023-02-15T11:04:58;5.00;;;2.10;;
50056;SDS011;36875;49.468;11.200;2023-02-15T11:07:36;6.85;;;2.25;;
50056;SDS011;36875;49.468;11.200;2023-02-15T11:10:06;10.20;;;2.28;;
50056;SDS011;36875;49.468;11.200;2023-02-15T11:12:44;9.03;;;2.47;;
50056;SDS011;36875;49.468;11.200;2023-02-15T11:15:15;8.15;;;2.70;;
50056;SDS011;36875;49.468;11.200;2023-02-15T11:17:46;8.55;;;2.40;;
50056;SDS011;36875;49.468;11.200;2023-02-15T11:20:18;11.10;;;2.55;;
50056;SDS011;36875;49.468;11.200;2023-02-15T11:22:50;6.50;;;2.38;;
50056;SDS011;36875;49.468;11.200;2023-02-15T11:25:19;14.68;;;2.83;;
50056;SDS011;36875;49.468;11.200;2023-02-15T11:27:47;9.38;;;3.00;;
50056;SDS011;36875;49.468;11.200;2023-02-15T11:30:15;7.82;;;2.40;;
50056;SDS011;36875;49.468;11.200;2023-02-15T11:32:44;9.05;;;2.47;;
50056;SDS011;36875;49.468;11.200;2023-02-15T11:35:17;8.23;;;2.92;;
50056;SDS011;36875;49.468;11.200;2023-02-15T11:37:47;10.80;;;2.60;;
50056;SDS011;36875;49.468;11.200;2023-02-15T11:40:19;11.48;;;3.10;;
50056;SDS011;36875;49.468;11.200;2023-02-15T11:42:49;8.70;;;2.80;;
50056;SDS011;36875;49.468;11.200;2023-02-15T11:45:22;8.00;;;2.60;;
50056;SDS011;36875;49.468;11.200;2023-02-15T11:47:52;9.32;;;2.78;;
50056;SDS011;36875;49.468;11.200;2023-02-15T11:50:19;8.00;;;2.50;;
50056;SDS011;36875;49.468;11.200;2023-02-15T11:52:48;7.07;;;2.70;;
50056;SDS011;36875;49.468;11.200;2023-02-15T11:55:14;5.85;;;2.33;;
50056;SDS011;36875;49.468;11.200;2023-02-15T11:57:46;7.75;;;2.60;;
50056;SDS011;36875;49.468;11.200;2023-02-15T12:00:20;6.32;;;2.45;;
50056;SDS011;36875;49.468;11.200;2023-02-15T12:02:56;7.85;;;2.50;;
50056;SDS011;36875;49.468;11.200;2023-02-15T12:05:23;8.20;;;2.10;;
50056;SDS011;36875;49.468;11.200;2023-02-15T12:07:52;4.78;;;2.00;;
50056;SDS011;36875;49.468;11.200;2023-02-15T12:10:22;5.88;;;2.25;;
50056;SDS011;36875;49.468;11.200;2023-02-15T12:12:53;4.82;;;2.00;;
50056;SDS011;36875;49.468;11.200;2023-02-15T12:15:34;6.65;;;1.90;;
50056;SDS011;36875;49.468;11.200;2023-02-15T12:18:01;9.18;;;2.75;;
50056;SDS011;36875;49.468;11.200;2023-02-15T12:20:28;5.10;;;2.15;;
50056;SDS011;36875;49.468;11.200;2023-02-15T12:22:58;6.97;;;2.45;;
50056;SDS011;36875;49.468;11.200;2023-02-15T12:25:35;5.43;;;2.45;;
50056;SDS011;36875;49.468;11.200;2023-02-15T12:28:05;7.53;;;2.63;;
50056;SDS011;36875;49.468;11.200;2023-02-15T12:30:47;4.88;;;2.20;;
50056;SDS011;36875;49.468;11.200;2023-02-15T12:33:13;6.88;;;2.30;;
50056;SDS011;36875;49.468;11.200;2023-02-15T12:35:54;5.35;;;2.50;;
50056;SDS011;36875;49.468;11.200;2023-02-15T12:38:24;5.38;;;1.98;;
50056;SDS011;36875;49.468;11.200;2023-02-15T12:41:00;4.18;;;1.88;;
50056;SDS011;36875;49.468;11.200;2023-02-15T12:43:27;7.10;;;1.98;;
50056;SDS011;36875;49.468;11.200;2023-02-15T12:46:12;6.28;;;1.98;;
50056;SDS011;36875;49.468;11.200;2023-02-15T12:48:44;2.40;;;1.60;;
50056;SDS011;36875;49.468;11.200;2023-02-15T12:51:14;5.38;;;1.98;;
50056;SDS011;36875;49.468;11.200;2023-02-15T12:53:40;4.57;;;2.15;;
50056;SDS011;36875;49.468;11.200;2023-02-15T12:56:08;4.15;;;2.10;;
50056;SDS011;36875;49.468;11.200;2023-02-15T12:58:35;4.70;;;2.10;;
50056;SDS011;36875;49.468;11.200;2023-02-15T13:01:04;7.28;;;2.03;;
50056;SDS011;36875;49.468;11.200;2023-02-15T13:03:53;4.68;;;1.75;;
50056;SDS011;36875;49.468;11.200;2023-02-15T13:06:23;4.88;;;1.80;;
50056;SDS011;36875;49.468;11.200;2023-02-15T13:08:50;3.58;;;1.92;;
50056;SDS011;36875;49.468;11.200;2023-02-15T13:11:21;8.85;;;2.00;;
50056;SDS011;36875;49.468;11.200;2023-02-15T13:13:50;6.05;;;2.15;;
50056;SDS011;36875;49.468;11.200;2023-02-15T13:16:19;4.65;;;1.55;;
50056;SDS011;36875;49.468;11.200;2023-02-15T13:18:53;5.82;;;1.85;;
50056;SDS011;36875;49.468;11.200;2023-02-15T13:21:20;7.45;;;1.73;;
50056;SDS011;36875;49.468;11.200;2023-02-15T13:23:51;8.63;;;2.10;;
50056;SDS011;36875;49.468;11.200;2023-02-15T13:26:23;4.07;;;1.90;;
50056;SDS011;36875;49.468;11.200;2023-02-15T13:28:54;3.15;;;1.60;;
50056;SDS011;36875;49.468;11.200;2023-02-15T13:31:23;4.05;;;1.50;;
50056;SDS011;36875;49.468;11.200;2023-02-15T13:33:53;8.15;;;1.60;;
50056;SDS011;36875;49.468;11.200;2023-02-15T13:36:23;5.88;;;2.20;;
50056;SDS011;36875;49.468;11.200;2023-02-15T13:39:06;6.55;;;1.83;;
50056;SDS011;36875;49.468;11.200;2023-02-15T13:41:46;7.60;;;1.77;;
50056;SDS011;36875;49.468;11.200;2023-02-15T13:44:19;5.97;;;2.20;;
50056;SDS011;36875;49.468;11.200;2023-02-15T13:46:55;4.88;;;1.80;;
50056;SDS011;36875;49.468;11.200;2023-02-15T13:49:33;4.43;;;2.00;;
50056;SDS011;36875;49.468;11.200;2023-02-15T13:52:14;6.75;;;2.53;;
50056;SDS011;36875;49.468;11.200;2023-02-15T13:54:58;9.00;;;3.17;;
50056;SDS011;36875;49.468;11.200;2023-02-15T13:57:46;7.03;;;3.10;;
50056;SDS011;36875;49.468;11.200;2023-02-15T14:00:22;5.05;;;2.83;;
50056;SDS011;36875;49.468;11.200;2023-02-15T14:02:57;6.22;;;2.83;;
50056;SDS011;36875;49.468;11.200;2023-02-15T14:05:46;6.18;;;2.53;;
50056;SDS011;36875;49.468;11.200;2023-02-15T14:08:37;6.30;;;2.17;;
50056;SDS011;36875;49.468;11.200;2023-02-15T14:11:14;6.35;;;2.28;;
50056;SDS011;36875;49.468;11.200;2023-02-15T14:13:57;14.88;;;2.90;;
50056;SDS011;36875;49.468;11.200;2023-02-15T14:16:33;6.43;;;2.40;;
50056;SDS011;36875;49.468;11.200;2023-02-15T14:19:10;6.55;;;2.58;;
50056;SDS011;36875;49.468;11.200;2023-02-15T14:21:43;4.35;;;2.47;;
50056;SDS011;36875;49.468;11.200;2023-02-15T14:24:16;6.47;;;2.83;;
50056;SDS011;36875;49.468;11.200;2023-02-15T14:26:51;5.45;;;2.40;;
50056;SDS011;36875;49.468;11.200;2023-02-15T14:29:25;6.47;;;2.83;;
50056;SDS011;36875;49.468;11.200;2023-02-15T14:32:04;6.13;;;2.35;;
50056;SDS011;36875;49.468;11.200;2023-02-15T14:34:36;9.20;;;5.88;;
50056;SDS011;36875;49.468;11.200;2023-02-15T14:37:09;11.40;;;6.18;;
50056;SDS011;36875;49.468;11.200;2023-02-15T14:39:40;9.52;;;5.75;;
50056;SDS011;36875;49.468;11.200;2023-02-15T14:42:30;9.55;;;5.32;;
50056;SDS011;36875;49.468;11.200;2023-02-15T14:45:04;10.10;;;5.93;;
50056;SDS011;36875;49.468;11.200;2023-02-15T14:47:42;9.10;;;5.53;;
50056;SDS011;36875;49.468;11.200;2023-02-15T14:53:15;8.98;;;5.80;;
50056;SDS011;36875;49.468;11.200;2023-02-15T14:55:42;7.40;;;4.80;;
50056;SDS011;36875;49.468;11.200;2023-02-15T14:58:10;13.77;;;5.50;;